createdAt,value
2019-06-26T00:01:27.872Z,101602.84
2019-06-26T00:03:59.782Z,101606.20
2019-06-26T00:06:31.785Z,101608.58
2019-06-26T00:09:04.201Z,101610.27
2019-06-26T00:11:36.226Z,101607.59
2019-06-26T00:14:08.193Z,101614.36
2019-06-26T00:16:40.204Z,101614.36
2019-06-26T00:19:12.119Z,101607.33
2019-06-26T00:21:44.187Z,101616.63
2019-06-26T00:24:16.357Z,101621.78
2019-06-26T00:26:48.315Z,101615.89
2019-06-26T00:29:20.489Z,101618.64
2019-06-26T00:31:52.552Z,101611.47
2019-06-26T00:34:24.608Z,101612.64
2019-06-26T00:36:56.674Z,101598.03
2019-06-26T00:39:28.775Z,101617.53
2019-06-26T00:42:00.703Z,101623.95
2019-06-26T00:44:32.651Z,101616.74
2019-06-26T00:47:04.409Z,101622.42
2019-06-26T00:49:36.390Z,101623.83
2019-06-26T00:52:08.355Z,101623.66
2019-06-26T00:54:40.411Z,101627.36
2019-06-26T00:57:12.480Z,101624.41
2019-06-26T00:59:44.503Z,101622.12
2019-06-26T01:02:16.461Z,101622.92
2019-06-26T01:04:55.901Z,101617.73
2019-06-26T01:07:27.789Z,101620.77
2019-06-26T01:09:59.606Z,101620.77
2019-06-26T01:12:31.596Z,101628.05
2019-06-26T01:15:04.223Z,101628.52
2019-06-26T01:17:36.271Z,101627.97
2019-06-26T01:20:08.460Z,101632.66
2019-06-26T01:22:40.444Z,101630.89
2019-06-26T01:25:12.844Z,101630.66
2019-06-26T01:27:44.943Z,101634.09
2019-06-26T01:30:16.690Z,101632.33
2019-06-26T01:32:48.655Z,101626.56
2019-06-26T01:35:20.699Z,101631.83
2019-06-26T01:37:52.862Z,101631.78
2019-06-26T01:40:24.848Z,101630.66
2019-06-26T01:42:57.047Z,101637.31
2019-06-26T01:45:28.855Z,101635.22
2019-06-26T01:48:00.719Z,101642.30
2019-06-26T01:50:32.606Z,101641.49
2019-06-26T01:53:04.640Z,101635.25
2019-06-26T01:55:36.546Z,101638.38
2019-06-26T01:58:08.579Z,101646.06
2019-06-26T02:00:40.500Z,101643.28
2019-06-26T02:03:12.397Z,101641.34
2019-06-26T02:05:44.264Z,101644.31
2019-06-26T02:08:16.247Z,101638.55
2019-06-26T02:10:48.380Z,101640.27
2019-06-26T02:13:20.338Z,101643.94
2019-06-26T02:15:52.260Z,101644.40
2019-06-26T02:18:43.816Z,101647.22
2019-06-26T02:21:15.817Z,101644.25
2019-06-26T02:23:47.665Z,101647.45
2019-06-26T02:26:19.501Z,101652.50
2019-06-26T02:28:51.577Z,101650.61
2019-06-26T02:31:23.683Z,101651.22
2019-06-26T02:33:55.552Z,101648.76
2019-06-26T02:36:27.408Z,101653.27
2019-06-26T02:38:59.228Z,101655.40
2019-06-26T02:41:31.475Z,101652.31
2019-06-26T02:44:03.323Z,101653.16
2019-06-26T02:46:35.352Z,101658.05
2019-06-26T02:49:07.135Z,101658.44
